Time;durP1;ratioP1;P1;durP2;ratioP2;P2;SDS_P1;SDS_P2;PMS_P1;PMS_P2;Temp;Humidity;BMP_temperature;BMP_pressure;BME280_temperature;BME280_humidity;BME280_pressure;Samples;Min_cycle;Max_cycle;Signal;HPM_P1;HPM_P2
2021/12/02 00:00:21;;;;;;;78.38;17.02;;;;;;;;;;5030134;28;20207;-93
2021/12/02 00:02:47;;;;;;;84.70;17.60;;;;;;;;;;5030906;28;20205;-94
2021/12/02 00:05:14;;;;;;;80.45;17.92;;;;;;;;;;5030829;28;20193;-94
2021/12/02 00:07:40;;;;;;;78.28;17.05;;;;;;;;;;5029647;28;20200;-95
2021/12/02 00:10:07;;;;;;;80.03;17.63;;;;;;;;;;5030262;28;20548;-94
2021/12/02 00:12:34;;;;;;;76.13;16.40;;;;;;;;;;5030398;28;20192;-93
2021/12/02 00:15:06;;;;;;;76.90;15.75;;;;;;;;;;5029171;28;20197;-94
2021/12/02 00:17:37;;;;;;;79.68;16.95;;;;;;;;;;5029301;28;20256;-94
2021/12/02 00:22:59;;;;;;;78.57;16.73;;;;;;;;;;5030054;28;20210;-93
2021/12/02 00:25:25;;;;;;;77.45;17.02;;;;;;;;;;5030539;28;20188;-93
2021/12/02 00:27:52;;;;;;;80.07;17.63;;;;;;;;;;5029676;28;20201;-93
2021/12/02 00:30:20;;;;;;;77.72;17.17;;;;;;;;;;5029786;28;20205;-93
2021/12/02 00:32:48;;;;;;;77.22;15.52;;;;;;;;;;5029522;28;20272;-93
2021/12/02 00:35:16;;;;;;;75.72;16.00;;;;;;;;;;5028630;28;20220;-92
2021/12/02 00:37:44;;;;;;;72.88;14.60;;;;;;;;;;5029919;28;20206;-92
2021/12/02 00:40:10;;;;;;;71.90;13.63;;;;;;;;;;5030248;28;20207;-92
2021/12/02 00:42:39;;;;;;;74.88;15.15;;;;;;;;;;5029503;28;20214;-92
2021/12/02 00:45:06;;;;;;;70.30;12.77;;;;;;;;;;5029340;28;20262;-91
2021/12/02 00:47:34;;;;;;;70.30;12.80;;;;;;;;;;5030300;28;20314;-93
2021/12/02 00:50:00;;;;;;;70.53;12.57;;;;;;;;;;5029647;28;20553;-93
2021/12/02 00:52:28;;;;;;;71.28;13.20;;;;;;;;;;5029661;28;20251;-92
2021/12/02 00:54:54;;;;;;;72.05;13.18;;;;;;;;;;5029636;28;20228;-93
2021/12/02 00:57:21;;;;;;;72.65;14.27;;;;;;;;;;5028644;28;20255;-93
2021/12/02 00:59:49;;;;;;;80.88;18.40;;;;;;;;;;5026920;28;20201;-93
2021/12/02 01:02:16;;;;;;;79.38;16.20;;;;;;;;;;5028364;28;20211;-93
2021/12/02 01:04:44;;;;;;;76.45;16.15;;;;;;;;;;5029438;28;20192;-93
2021/12/02 01:07:10;;;;;;;78.60;16.83;;;;;;;;;;5029669;28;20252;-92
2021/12/02 01:09:37;;;;;;;84.05;17.88;;;;;;;;;;5029549;28;20206;-93
2021/12/02 01:12:05;;;;;;;90.50;20.10;;;;;;;;;;5011609;28;20196;-93
2021/12/02 01:14:31;;;;;;;95.97;21.05;;;;;;;;;;5028374;28;20252;-92
2021/12/02 01:16:58;;;;;;;82.93;20.48;;;;;;;;;;5028710;28;20426;-93
2021/12/02 01:19:24;;;;;;;89.75;20.17;;;;;;;;;;5028304;28;20223;-92
2021/12/02 01:21:52;;;;;;;90.75;21.65;;;;;;;;;;5028592;28;20196;-92
2021/12/02 01:24:20;;;;;;;87.65;21.52;;;;;;;;;;5028935;28;20201;-93
2021/12/02 01:26:50;;;;;;;84.60;21.85;;;;;;;;;;5028675;28;20216;-93
2021/12/02 01:29:18;;;;;;;82.95;19.25;;;;;;;;;;5028334;28;20224;-93
2021/12/02 01:31:48;;;;;;;95.97;21.15;;;;;;;;;;5027733;28;20227;-93
2021/12/02 01:34:15;;;;;;;91.30;22.48;;;;;;;;;;5027726;28;20232;-93
2021/12/02 01:36:42;;;;;;;85.65;20.38;;;;;;;;;;5028203;28;20194;-93
2021/12/02 01:39:10;;;;;;;87.03;19.52;;;;;;;;;;5028600;28;20193;-93
2021/12/02 01:41:38;;;;;;;91.00;20.80;;;;;;;;;;5028781;28;20206;-93
2021/12/02 01:44:09;;;;;;;82.90;20.65;;;;;;;;;;5028903;28;20276;-93
2021/12/02 01:46:36;;;;;;;86.20;21.67;;;;;;;;;;5023775;28;20229;-93
2021/12/02 01:49:04;;;;;;;80.38;19.25;;;;;;;;;;5017680;28;20654;-94
2021/12/02 01:51:31;;;;;;;81.68;19.17;;;;;;;;;;5018798;28;20564;-93
2021/12/02 01:54:02;;;;;;;83.72;19.80;;;;;;;;;;5018688;28;20224;-93
2021/12/02 01:56:32;;;;;;;83.88;19.50;;;;;;;;;;5018530;28;20228;-93
2021/12/02 01:59:04;;;;;;;81.93;18.73;;;;;;;;;;5017689;28;20198;-93
2021/12/02 02:01:34;;;;;;;86.03;19.65;;;;;;;;;;5017335;28;20193;-93
2021/12/02 02:04:01;;;;;;;83.05;18.60;;;;;;;;;;5019524;28;20209;-94
2021/12/02 02:06:29;;;;;;;83.60;19.35;;;;;;;;;;5019483;28;20224;-93
2021/12/02 02:08:56;;;;;;;79.85;19.35;;;;;;;;;;5018875;28;20296;-93
2021/12/02 02:11:25;;;;;;;78.72;17.30;;;;;;;;;;5018503;28;20193;-93
2021/12/02 02:13:52;;;;;;;81.60;18.30;;;;;;;;;;5018188;28;20217;-93
2021/12/02 02:16:19;;;;;;;81.18;17.45;;;;;;;;;;5018013;28;20205;-93
2021/12/02 02:18:46;;;;;;;80.43;18.30;;;;;;;;;;5019752;28;20212;-93
2021/12/02 02:21:16;;;;;;;78.30;17.98;;;;;;;;;;5018626;28;20201;-93
2021/12/02 02:23:46;;;;;;;78.65;17.95;;;;;;;;;;5018184;28;20216;-94
2021/12/02 02:26:14;;;;;;;85.20;18.83;;;;;;;;;;5028061;28;20225;-92
2021/12/02 02:28:40;;;;;;;86.32;21.88;;;;;;;;;;5028393;28;20199;-93
2021/12/02 02:31:07;;;;;;;89.50;21.77;;;;;;;;;;5019100;28;20204;-92
2021/12/02 02:33:38;;;;;;;90.20;21.30;;;;;;;;;;5018003;28;20201;-93
2021/12/02 02:36:05;;;;;;;84.38;20.45;;;;;;;;;;5018099;28;20859;-93
2021/12/02 02:38:33;;;;;;;83.22;20.00;;;;;;;;;;5019433;28;20193;-93
2021/12/02 02:41:01;;;;;;;88.68;21.42;;;;;;;;;;5018098;28;20229;-93
2021/12/02 02:43:30;;;;;;;81.65;19.38;;;;;;;;;;5018019;28;20205;-93
2021/12/02 02:45:56;;;;;;;85.07;19.95;;;;;;;;;;5020864;28;20264;-94
2021/12/02 02:48:23;;;;;;;86.97;20.83;;;;;;;;;;5027797;28;20201;-94
2021/12/02 02:50:49;;;;;;;83.55;19.40;;;;;;;;;;5027748;28;20228;-94
2021/12/02 02:53:21;;;;;;;83.95;19.70;;;;;;;;;;5028222;28;20205;-93
2021/12/02 02:55:56;;;;;;;84.13;19.38;;;;;;;;;;5030873;28;20188;-94
2021/12/02 02:58:28;;;;;;;80.38;18.83;;;;;;;;;;5028417;28;20204;-93
2021/12/02 03:01:02;;;;;;;81.30;18.80;;;;;;;;;;5031281;28;20200;-93
2021/12/02 03:03:35;;;;;;;82.28;20.10;;;;;;;;;;5029393;28;20210;-93
2021/12/02 03:06:21;;;;;;;86.30;20.77;;;;;;;;;;5028881;28;20551;-93
2021/12/02 03:08:51;;;;;;;89.95;21.80;;;;;;;;;;5030997;28;20823;-93
2021/12/02 03:11:20;;;;;;;90.18;23.15;;;;;;;;;;5031001;28;20227;-93
2021/12/02 03:13:49;;;;;;;96.20;26.15;;;;;;;;;;5031475;28;20189;-92
2021/12/02 03:18:59;;;;;;;93.95;24.02;;;;;;;;;;5031268;28;20227;-93
2021/12/02 03:21:26;;;;;;;95.00;24.83;;;;;;;;;;5031947;28;20189;-92
2021/12/02 03:23:54;;;;;;;106.68;26.80;;;;;;;;;;5030174;28;20193;-93
2021/12/02 03:26:22;;;;;;;103.25;27.67;;;;;;;;;;5029899;28;20223;-92
2021/12/02 03:28:48;;;;;;;104.13;27.45;;;;;;;;;;5030266;28;20205;-93
2021/12/02 03:31:15;;;;;;;103.82;29.05;;;;;;;;;;5028923;28;20295;-94
2021/12/02 03:33:42;;;;;;;104.03;28.58;;;;;;;;;;5035229;28;20193;-93
2021/12/02 03:36:08;;;;;;;101.85;26.33;;;;;;;;;;5029035;28;20232;-93
2021/12/02 03:38:35;;;;;;;101.28;25.30;;;;;;;;;;5029926;28;20654;-93
2021/12/02 03:41:01;;;;;;;100.00;25.35;;;;;;;;;;5029572;28;20205;-93
2021/12/02 03:43:33;;;;;;;101.93;28.20;;;;;;;;;;5029294;28;20193;-93
2021/12/02 03:46:00;;;;;;;96.63;23.13;;;;;;;;;;5028655;28;20273;-93
2021/12/02 03:48:26;;;;;;;96.88;23.15;;;;;;;;;;5028214;28;20669;-93
2021/12/02 03:50:53;;;;;;;97.03;25.70;;;;;;;;;;5028271;28;20256;-93
2021/12/02 03:53:19;;;;;;;95.40;25.70;;;;;;;;;;5029488;28;20212;-93
2021/12/02 03:55:46;;;;;;;106.18;28.23;;;;;;;;;;5029122;28;20228;-94
2021/12/02 03:58:12;;;;;;;109.63;29.27;;;;;;;;;;5028722;28;20204;-93
2021/12/02 04:00:40;;;;;;;106.90;30.58;;;;;;;;;;5029131;28;20221;-93
2021/12/02 04:03:07;;;;;;;105.22;27.15;;;;;;;;;;5028381;28;20200;-93
2021/12/02 04:05:33;;;;;;;123.45;29.67;;;;;;;;;;5028209;28;20258;-93
2021/12/02 04:08:00;;;;;;;135.75;30.85;;;;;;;;;;5029202;28;20197;-93
2021/12/02 04:10:26;;;;;;;135.95;31.48;;;;;;;;;;5028959;28;20568;-93
2021/12/02 04:13:01;;;;;;;119.45;30.42;;;;;;;;;;5030373;28;20209;-93
2021/12/02 04:15:30;;;;;;;130.95;30.83;;;;;;;;;;5029963;28;20259;-94
2021/12/02 04:17:57;;;;;;;122.00;31.83;;;;;;;;;;5030492;28;20201;-93
2021/12/02 04:20:25;;;;;;;133.98;31.83;;;;;;;;;;5029671;28;20201;-93
2021/12/02 04:22:52;;;;;;;114.30;28.35;;;;;;;;;;5028420;28;20219;-93
2021/12/02 04:25:18;;;;;;;231.27;34.92;;;;;;;;;;5028690;28;20204;-93
2021/12/02 04:27:45;;;;;;;167.55;31.33;;;;;;;;;;5032856;28;20197;-93
2021/12/02 04:30:13;;;;;;;247.02;33.13;;;;;;;;;;5028454;28;20208;-93
2021/12/02 04:32:39;;;;;;;224.77;33.05;;;;;;;;;;5029011;28;20276;-93
2021/12/02 04:35:08;;;;;;;139.73;27.63;;;;;;;;;;5028391;28;20224;-94
2021/12/02 04:37:34;;;;;;;147.52;27.90;;;;;;;;;;5029139;28;20235;-93
2021/12/02 04:40:01;;;;;;;137.60;26.60;;;;;;;;;;5028950;28;20193;-93
2021/12/02 04:42:29;;;;;;;140.07;28.73;;;;;;;;;;5028824;28;20196;-93
2021/12/02 04:44:56;;;;;;;104.50;27.10;;;;;;;;;;5029254;28;20216;-93
2021/12/02 04:47:22;;;;;;;102.65;27.95;;;;;;;;;;5020323;28;20294;-94
2021/12/02 04:49:49;;;;;;;102.72;28.58;;;;;;;;;;5016576;28;20197;-93
2021/12/02 04:52:16;;;;;;;101.70;26.60;;;;;;;;;;5019217;28;20189;-94
2021/12/02 04:54:43;;;;;;;119.57;27.73;;;;;;;;;;5020173;28;20208;-94
2021/12/02 04:57:09;;;;;;;108.75;25.65;;;;;;;;;;5021824;28;20201;-94
2021/12/02 04:59:36;;;;;;;106.93;25.55;;;;;;;;;;5020050;28;20194;-93
2021/12/02 05:02:02;;;;;;;113.47;28.75;;;;;;;;;;5018782;28;20193;-93
2021/12/02 05:04:29;;;;;;;238.07;35.80;;;;;;;;;;5017597;28;20193;-94
2021/12/02 05:06:56;;;;;;;163.52;31.73;;;;;;;;;;5017354;28;20882;-94
2021/12/02 05:09:23;;;;;;;113.05;27.73;;;;;;;;;;5019052;28;20193;-94
2021/12/02 05:11:50;;;;;;;125.22;29.35;;;;;;;;;;5018420;28;20220;-93
2021/12/02 05:14:16;;;;;;;128.02;27.95;;;;;;;;;;5018545;28;20205;-93
2021/12/02 05:16:43;;;;;;;130.80;28.70;;;;;;;;;;5018419;28;20198;-93
2021/12/02 05:19:10;;;;;;;117.40;26.35;;;;;;;;;;5018277;28;20198;-93
2021/12/02 05:21:36;;;;;;;104.53;25.60;;;;;;;;;;5017524;28;20533;-94
2021/12/02 05:24:03;;;;;;;103.47;27.13;;;;;;;;;;5017267;28;20265;-93
2021/12/02 05:26:31;;;;;;;98.57;25.00;;;;;;;;;;5017867;28;20193;-93
2021/12/02 05:28:57;;;;;;;103.88;26.88;;;;;;;;;;5019352;28;20291;-93
2021/12/02 05:31:24;;;;;;;100.38;25.83;;;;;;;;;;5019368;28;20205;-93
2021/12/02 05:33:51;;;;;;;104.93;27.48;;;;;;;;;;5018898;28;20192;-94
2021/12/02 05:36:17;;;;;;;107.68;29.95;;;;;;;;;;5018606;28;20761;-93
2021/12/02 05:38:44;;;;;;;110.32;30.60;;;;;;;;;;5018909;28;20223;-94
2021/12/02 05:41:13;;;;;;;114.53;30.17;;;;;;;;;;5018816;28;20197;-94
2021/12/02 05:43:41;;;;;;;160.70;39.70;;;;;;;;;;5017490;28;20252;-93
2021/12/02 05:46:07;;;;;;;148.95;40.15;;;;;;;;;;5019824;28;20236;-94
2021/12/02 05:48:34;;;;;;;138.57;36.60;;;;;;;;;;5029803;28;20216;-94
2021/12/02 05:51:00;;;;;;;146.80;38.25;;;;;;;;;;5028986;28;20192;-93
2021/12/02 05:53:27;;;;;;;142.05;36.55;;;;;;;;;;5028150;28;20598;-94
2021/12/02 05:55:54;;;;;;;215.80;43.50;;;;;;;;;;5027658;28;20236;-94
2021/12/02 05:58:20;;;;;;;176.73;41.70;;;;;;;;;;5028277;28;20202;-94
2021/12/02 06:00:49;;;;;;;145.38;37.50;;;;;;;;;;5027954;28;20209;-94
2021/12/02 06:03:16;;;;;;;163.48;40.15;;;;;;;;;;5028048;28;20697;-94
2021/12/02 06:05:44;;;;;;;142.90;38.67;;;;;;;;;;5028340;28;20204;-93
2021/12/02 06:08:11;;;;;;;131.82;34.88;;;;;;;;;;5027834;28;20292;-94
2021/12/02 06:10:37;;;;;;;256.30;43.53;;;;;;;;;;5027957;28;20244;-93
2021/12/02 06:13:03;;;;;;;144.98;38.45;;;;;;;;;;5028287;28;20192;-93
2021/12/02 06:15:30;;;;;;;151.13;37.05;;;;;;;;;;5027916;28;20223;-94
2021/12/02 06:17:58;;;;;;;137.38;36.88;;;;;;;;;;5027279;28;20192;-93
2021/12/02 06:20:25;;;;;;;128.38;38.03;;;;;;;;;;5026867;28;20199;-93
2021/12/02 06:22:51;;;;;;;143.05;41.80;;;;;;;;;;5027278;28;20200;-94
2021/12/02 06:27:58;;;;;;;146.32;30.65;;;;;;;;;;5025870;28;20206;-94
2021/12/02 06:30:26;;;;;;;207.85;34.88;;;;;;;;;;5024775;28;20208;-93
2021/12/02 06:32:52;;;;;;;137.18;30.50;;;;;;;;;;5025818;28;20200;-93
2021/12/02 06:35:21;;;;;;;139.85;32.08;;;;;;;;;;5029481;28;20231;-94
2021/12/02 06:37:47;;;;;;;185.48;32.38;;;;;;;;;;5031178;28;20883;-94
2021/12/02 06:40:14;;;;;;;108.72;27.90;;;;;;;;;;5031396;28;20207;-93
2021/12/02 06:42:41;;;;;;;116.28;32.60;;;;;;;;;;5030867;28;20227;-94
2021/12/02 06:45:09;;;;;;;119.20;33.53;;;;;;;;;;5030792;28;20231;-94
2021/12/02 06:47:38;;;;;;;110.15;29.17;;;;;;;;;;5022582;28;20232;-94
2021/12/02 06:50:06;;;;;;;109.15;28.75;;;;;;;;;;5021800;28;20219;-94
2021/12/02 06:52:34;;;;;;;129.75;29.45;;;;;;;;;;5020176;28;20208;-94
2021/12/02 06:55:01;;;;;;;162.75;31.65;;;;;;;;;;5018927;28;20221;-94
2021/12/02 06:57:27;;;;;;;146.27;33.30;;;;;;;;;;5019497;28;20202;-96
2021/12/02 06:59:54;;;;;;;171.27;45.65;;;;;;;;;;5019897;28;20205;-94
2021/12/02 07:02:21;;;;;;;143.63;41.83;;;;;;;;;;5019649;28;20198;-95
2021/12/02 07:04:50;;;;;;;125.55;40.28;;;;;;;;;;5012201;28;20198;-96
2021/12/02 07:07:17;;;;;;;132.30;41.25;;;;;;;;;;5021157;28;20288;-96
2021/12/02 07:09:45;;;;;;;122.63;37.92;;;;;;;;;;5020677;28;20214;-96
2021/12/02 07:12:12;;;;;;;125.07;38.97;;;;;;;;;;5021385;28;20189;-96
2021/12/02 07:14:39;;;;;;;119.90;36.28;;;;;;;;;;5020912;28;20214;-96
2021/12/02 07:17:05;;;;;;;120.47;38.28;;;;;;;;;;5020448;28;20228;-96
2021/12/02 07:19:32;;;;;;;81.85;18.13;;;;;;;;;;5022983;28;20211;-95
2021/12/02 07:21:58;;;;;;;151.13;50.60;;;;;;;;;;5022094;28;20545;-96
2021/12/02 07:24:25;;;;;;;113.50;31.95;;;;;;;;;;5022917;28;20195;-96
2021/12/02 07:26:53;;;;;;;100.00;27.35;;;;;;;;;;5022372;28;20190;-96
2021/12/02 07:59:18;;;;;;;137.93;48.13;;;;;;;;;;5793547;23;20211;-95
2021/12/02 08:02:05;;;;;;;114.50;36.30;;;;;;;;;;5352975;22;20245;-96
2021/12/02 08:12:28;;;;;;;148.05;58.58;;;;;;;;;;5851679;23;20210;-96
2021/12/02 08:18:04;;;;;;;109.83;35.23;;;;;;;;;;5061378;28;20196;-96
2021/12/02 08:21:08;;;;;;;122.15;39.83;;;;;;;;;;5062848;28;20441;-96
2021/12/02 08:23:35;;;;;;;173.27;74.27;;;;;;;;;;5051601;28;21489;-96
2021/12/02 08:26:02;;;;;;;149.00;60.67;;;;;;;;;;5051198;28;20514;-95
2021/12/02 08:28:29;;;;;;;122.90;43.37;;;;;;;;;;5050789;28;20511;-93
2021/12/02 08:30:57;;;;;;;123.30;42.05;;;;;;;;;;5050066;28;20462;-95
2021/12/02 08:33:25;;;;;;;134.68;46.58;;;;;;;;;;5050777;28;20239;-96
2021/12/02 08:35:51;;;;;;;128.32;44.90;;;;;;;;;;5057007;28;20226;-96
2021/12/02 08:38:19;;;;;;;125.47;44.60;;;;;;;;;;5048084;28;20290;-96
2021/12/02 08:40:48;;;;;;;116.23;42.13;;;;;;;;;;5059044;28;20223;-96
2021/12/02 08:43:15;;;;;;;115.47;40.43;;;;;;;;;;5059163;28;20462;-96
2021/12/02 08:59:04;;;;;;;80.07;17.50;;;;;;;;;;4098916;26;20476;-95
2021/12/02 09:01:33;;;;;;;78.17;18.03;;;;;;;;;;5025298;28;20463;-95
2021/12/02 09:04:00;;;;;;;86.83;22.70;;;;;;;;;;5027054;28;20444;-96
2021/12/02 09:06:29;;;;;;;84.80;19.43;;;;;;;;;;5026722;28;20444;-96
2021/12/02 09:08:58;;;;;;;88.93;24.40;;;;;;;;;;5026294;28;20451;-96
2021/12/02 09:11:24;;;;;;;98.07;27.47;;;;;;;;;;5023887;28;20510;-96
2021/12/02 09:16:34;;;;;;;96.27;27.90;;;;;;;;;;4997733;28;20518;-96
2021/12/02 09:19:20;;;;;;;105.37;31.97;;;;;;;;;;5027112;28;20968;-96
2021/12/02 09:21:47;;;;;;;95.23;29.43;;;;;;;;;;5024080;28;20507;-96
2021/12/02 09:24:18;;;;;;;97.13;30.17;;;;;;;;;;5026151;28;20451;-96
2021/12/02 09:26:45;;;;;;;101.00;29.43;;;;;;;;;;5032933;28;20519;-96
2021/12/02 09:29:12;;;;;;;99.77;31.03;;;;;;;;;;5175515;22;21258;-96
2021/12/02 09:31:44;;;;;;;95.83;29.80;;;;;;;;;;5035482;28;20495;-96
2021/12/02 09:34:26;;;;;;;97.83;29.73;;;;;;;;;;5030584;28;20470;-96
2021/12/02 09:45:10;;;;;;;97.20;26.50;;;;;;;;;;5028279;28;20452;-95
2021/12/02 09:50:54;;;;;;;87.23;23.50;;;;;;;;;;5055079;28;20422;-96
2021/12/02 09:53:24;;;;;;;79.97;20.90;;;;;;;;;;5044447;28;20414;-96
2021/12/02 10:01:48;;;;;;;75.00;17.37;;;;;;;;;;5079903;22;20471;-96
2021/12/02 10:04:22;;;;;;;77.63;19.03;;;;;;;;;;5124477;23;20504;-96
2021/12/02 10:07:24;;;;;;;77.10;18.13;;;;;;;;;;5037481;28;20513;-96
2021/12/02 10:09:59;;;;;;;79.80;19.37;;;;;;;;;;5040123;28;20507;-96
2021/12/02 10:12:26;;;;;;;78.87;18.77;;;;;;;;;;5039868;28;20427;-95
2021/12/02 10:14:56;;;;;;;76.23;16.67;;;;;;;;;;5034331;28;20442;-96
2021/12/02 10:17:46;;;;;;;74.43;17.50;;;;;;;;;;5210696;23;20444;-96
2021/12/02 10:22:40;;;;;;;74.80;16.10;;;;;;;;;;5030746;23;20564;-96
2021/12/02 10:25:08;;;;;;;75.20;15.67;;;;;;;;;;5005254;28;20619;-96
2021/12/02 10:27:34;;;;;;;71.17;15.47;;;;;;;;;;5008398;28;20449;-96
2021/12/02 10:30:01;;;;;;;75.60;15.27;;;;;;;;;;5005045;28;20454;-96
2021/12/02 10:32:36;;;;;;;76.70;16.00;;;;;;;;;;5004451;28;20453;-96
2021/12/02 10:35:06;;;;;;;72.17;14.90;;;;;;;;;;5003717;28;20442;-96
2021/12/02 10:37:33;;;;;;;72.70;14.17;;;;;;;;;;5002030;28;20491;-96
2021/12/02 10:42:53;;;;;;;70.73;15.00;;;;;;;;;;4953326;26;20485;-96
2021/12/02 10:45:22;;;;;;;72.50;15.07;;;;;;;;;;5413741;22;20501;-96
2021/12/02 10:47:49;;;;;;;75.97;14.27;;;;;;;;;;5013561;28;20893;-95
2021/12/02 10:50:22;;;;;;;69.17;13.60;;;;;;;;;;5005083;28;20455;-96
2021/12/02 10:52:51;;;;;;;65.67;9.80;;;;;;;;;;5004818;28;20452;-95
2021/12/02 10:55:19;;;;;;;63.63;9.43;;;;;;;;;;5005636;28;20469;-94
2021/12/02 10:57:48;;;;;;;64.30;10.00;;;;;;;;;;5008865;28;20474;-95
2021/12/02 11:00:16;;;;;;;63.70;10.00;;;;;;;;;;5003730;28;20447;-94
2021/12/02 11:02:47;;;;;;;66.63;10.47;;;;;;;;;;5005123;28;20454;-96
2021/12/02 11:05:20;;;;;;;63.47;9.70;;;;;;;;;;5004471;28;20445;-95
2021/12/02 11:07:52;;;;;;;63.57;9.23;;;;;;;;;;5007884;28;20445;-94
2021/12/02 11:10:19;;;;;;;64.53;10.53;;;;;;;;;;5004950;28;20439;-95
2021/12/02 11:12:50;;;;;;;63.17;9.77;;;;;;;;;;5004695;28;20441;-96
2021/12/02 11:15:26;;;;;;;63.87;9.80;;;;;;;;;;4995557;28;20899;-95
2021/12/02 11:17:53;;;;;;;63.30;9.57;;;;;;;;;;5004730;28;20486;-92
2021/12/02 11:20:22;;;;;;;64.53;10.90;;;;;;;;;;5006254;28;20455;-95
2021/12/02 11:22:53;;;;;;;62.80;9.43;;;;;;;;;;5005872;28;20448;-95
2021/12/02 11:25:20;;;;;;;64.43;9.90;;;;;;;;;;5005360;28;20511;-96
2021/12/02 11:27:50;;;;;;;63.30;9.70;;;;;;;;;;5005281;28;20449;-96
2021/12/02 11:30:19;;;;;;;63.50;10.00;;;;;;;;;;5007102;28;20452;-96
2021/12/02 11:32:50;;;;;;;63.70;10.23;;;;;;;;;;5009078;28;20445;-95
2021/12/02 11:35:32;;;;;;;63.40;10.30;;;;;;;;;;5007245;28;20445;-96
2021/12/02 11:38:04;;;;;;;63.37;10.00;;;;;;;;;;5004158;28;20519;-96
2021/12/02 11:40:33;;;;;;;63.57;9.90;;;;;;;;;;5007043;28;20449;-96
2021/12/02 11:43:05;;;;;;;64.07;9.70;;;;;;;;;;5007555;28;20456;-96
2021/12/02 11:45:38;;;;;;;63.57;10.03;;;;;;;;;;5008179;28;20459;-96
2021/12/02 11:50:53;;;;;;;64.07;10.27;;;;;;;;;;5006282;28;20433;-96
2021/12/02 11:53:28;;;;;;;62.87;9.70;;;;;;;;;;4997268;28;20461;-95
2021/12/02 11:55:58;;;;;;;63.33;9.90;;;;;;;;;;5007788;28;20507;-96
2021/12/02 11:58:42;;;;;;;63.83;10.27;;;;;;;;;;5008439;28;20430;-96
2021/12/02 12:01:25;;;;;;;64.40;10.00;;;;;;;;;;5009624;28;20460;-96
2021/12/02 12:03:57;;;;;;;64.27;10.07;;;;;;;;;;5008007;28;20441;-96
2021/12/02 12:06:25;;;;;;;64.57;10.70;;;;;;;;;;5006237;28;20440;-96
2021/12/02 12:09:03;;;;;;;63.80;10.30;;;;;;;;;;5009001;28;20492;-96
2021/12/02 12:11:32;;;;;;;63.47;9.83;;;;;;;;;;5008367;28;20449;-94
2021/12/02 12:14:01;;;;;;;64.13;10.10;;;;;;;;;;5008649;28;20527;-96
2021/12/02 12:16:35;;;;;;;64.30;10.27;;;;;;;;;;5008326;28;20481;-96
2021/12/02 12:19:22;;;;;;;64.20;10.67;;;;;;;;;;5008053;28;20452;-96
2021/12/02 12:21:51;;;;;;;64.00;10.50;;;;;;;;;;5007526;28;20455;-96
2021/12/02 12:24:18;;;;;;;63.50;10.63;;;;;;;;;;5010796;28;20496;-94
2021/12/02 12:26:46;;;;;;;63.27;10.10;;;;;;;;;;5009802;28;20441;-95
2021/12/02 12:29:31;;;;;;;65.13;10.70;;;;;;;;;;5124906;23;21062;-96
2021/12/02 12:32:17;;;;;;;63.60;10.80;;;;;;;;;;5053781;28;20914;-96
2021/12/02 12:37:49;;;;;;;64.10;10.47;;;;;;;;;;5008283;28;20503;-96
2021/12/02 12:40:18;;;;;;;63.77;10.63;;;;;;;;;;4997390;28;20511;-96
2021/12/02 12:42:48;;;;;;;64.50;10.83;;;;;;;;;;5006170;28;20484;-96
2021/12/02 12:45:24;;;;;;;65.30;10.70;;;;;;;;;;5008807;28;20452;-94
2021/12/02 12:47:53;;;;;;;63.50;10.77;;;;;;;;;;5000866;28;20436;-94
2021/12/02 12:50:42;;;;;;;63.90;10.00;;;;;;;;;;5002087;28;20480;-96
2021/12/02 12:53:27;;;;;;;64.80;11.30;;;;;;;;;;5001635;28;20461;-93
2021/12/02 12:56:10;;;;;;;68.37;11.30;;;;;;;;;;5000821;28;20553;-95
2021/12/02 12:58:38;;;;;;;65.13;11.47;;;;;;;;;;5005134;28;20441;-96
2021/12/02 13:01:06;;;;;;;63.90;11.03;;;;;;;;;;5000186;28;20447;-96
2021/12/02 13:04:03;;;;;;;63.13;10.57;;;;;;;;;;5005869;28;20443;-96
2021/12/02 13:06:33;;;;;;;63.90;10.43;;;;;;;;;;5002446;28;20441;-94
2021/12/02 13:09:03;;;;;;;63.80;11.60;;;;;;;;;;5003873;28;20441;-95
2021/12/02 13:11:32;;;;;;;65.17;11.93;;;;;;;;;;5001261;28;20473;-95
2021/12/02 13:14:00;;;;;;;63.57;10.57;;;;;;;;;;5003515;28;20463;-94
2021/12/02 13:16:34;;;;;;;64.23;10.30;;;;;;;;;;5002990;28;20504;-95
2021/12/02 13:19:12;;;;;;;63.67;10.30;;;;;;;;;;5000552;28;20525;-94
2021/12/02 13:21:48;;;;;;;64.93;11.33;;;;;;;;;;5002006;28;20476;-95
2021/12/02 13:24:17;;;;;;;66.73;10.60;;;;;;;;;;5003427;28;20521;-95
2021/12/02 13:29:28;;;;;;;63.60;10.53;;;;;;;;;;5014147;23;20442;-95
2021/12/02 13:32:02;;;;;;;63.67;10.93;;;;;;;;;;5025410;28;20476;-95
2021/12/02 13:34:33;;;;;;;64.80;10.70;;;;;;;;;;5025520;28;20451;-92
2021/12/02 13:37:01;;;;;;;63.10;10.13;;;;;;;;;;5025434;28;20491;-95
2021/12/02 13:39:34;;;;;;;64.70;11.40;;;;;;;;;;5024671;28;20454;-96
2021/12/02 13:42:07;;;;;;;64.20;11.23;;;;;;;;;;5027801;28;20518;-95
2021/12/02 13:44:37;;;;;;;64.33;11.73;;;;;;;;;;5022434;28;20454;-95
2021/12/02 13:47:08;;;;;;;64.20;11.10;;;;;;;;;;5020725;28;20451;-96
2021/12/02 13:49:38;;;;;;;65.07;10.90;;;;;;;;;;5020295;28;20541;-96
2021/12/02 13:52:27;;;;;;;64.30;11.30;;;;;;;;;;5020020;28;21442;-95
2021/12/02 13:54:57;;;;;;;63.63;10.80;;;;;;;;;;5021615;28;20459;-94
2021/12/02 13:57:25;;;;;;;63.10;10.37;;;;;;;;;;5021810;28;20617;-95
2021/12/02 13:59:52;;;;;;;64.20;10.70;;;;;;;;;;5021511;28;20444;-92
2021/12/02 14:02:19;;;;;;;63.77;10.40;;;;;;;;;;5022092;28;20481;-93
2021/12/02 14:04:50;;;;;;;64.77;11.53;;;;;;;;;;5023333;28;20459;-95
2021/12/02 14:07:18;;;;;;;65.30;10.90;;;;;;;;;;5019302;28;20462;-89
2021/12/02 14:09:49;;;;;;;65.20;11.30;;;;;;;;;;5018026;28;20447;-96
2021/12/02 14:12:16;;;;;;;65.10;11.47;;;;;;;;;;5016815;28;20474;-91
2021/12/02 14:14:56;;;;;;;66.60;11.13;;;;;;;;;;5018186;28;20502;-91
2021/12/02 14:17:22;;;;;;;64.07;11.33;;;;;;;;;;5017400;28;20558;-91
2021/12/02 14:20:02;;;;;;;65.57;11.00;;;;;;;;;;5019199;28;20435;-95
2021/12/02 14:22:29;;;;;;;64.60;10.30;;;;;;;;;;5018523;28;20457;-95
2021/12/02 14:24:56;;;;;;;63.97;11.00;;;;;;;;;;5020235;28;20586;-96
2021/12/02 14:27:22;;;;;;;65.37;11.03;;;;;;;;;;5019870;28;20443;-94
2021/12/02 14:29:49;;;;;;;64.60;11.07;;;;;;;;;;5015773;28;20486;-94
2021/12/02 14:32:15;;;;;;;64.47;11.30;;;;;;;;;;5028134;28;20446;-93
2021/12/02 14:34:42;;;;;;;66.20;11.13;;;;;;;;;;5030905;28;20437;-94
2021/12/02 14:37:25;;;;;;;65.00;10.60;;;;;;;;;;5030905;28;20477;-96
2021/12/02 14:39:52;;;;;;;65.17;11.27;;;;;;;;;;5031166;28;20476;-94
2021/12/02 14:42:22;;;;;;;64.37;10.43;;;;;;;;;;5031735;28;20467;-93
2021/12/02 14:44:52;;;;;;;66.13;10.93;;;;;;;;;;5028115;28;21859;-95
2021/12/02 14:47:20;;;;;;;65.07;11.50;;;;;;;;;;5028288;28;20566;-94
2021/12/02 14:49:48;;;;;;;65.50;11.40;;;;;;;;;;5028791;28;20445;-93
2021/12/02 14:52:21;;;;;;;65.23;11.30;;;;;;;;;;5029640;28;20445;-90
2021/12/02 14:54:50;;;;;;;65.33;11.90;;;;;;;;;;5030325;28;20867;-94
2021/12/02 14:57:21;;;;;;;64.97;11.77;;;;;;;;;;5034884;28;20603;-96
2021/12/02 14:59:48;;;;;;;64.80;11.03;;;;;;;;;;5035284;28;20446;-95
2021/12/02 15:02:18;;;;;;;69.70;12.07;;;;;;;;;;5038680;28;20445;-95
2021/12/02 15:04:49;;;;;;;68.80;11.60;;;;;;;;;;5035389;28;20472;-96
2021/12/02 15:07:31;;;;;;;65.07;11.47;;;;;;;;;;5039364;28;20450;-96
2021/12/02 15:09:58;;;;;;;65.23;11.90;;;;;;;;;;5032340;28;20515;-96
2021/12/02 15:12:26;;;;;;;65.80;11.40;;;;;;;;;;5032780;28;20524;-96
2021/12/02 15:15:04;;;;;;;67.53;12.00;;;;;;;;;;5032621;28;20457;-95
2021/12/02 15:17:38;;;;;;;66.03;11.70;;;;;;;;;;5041870;28;20514;-96
2021/12/02 15:20:13;;;;;;;65.87;11.80;;;;;;;;;;5036976;28;20461;-95
2021/12/02 15:22:41;;;;;;;66.30;12.00;;;;;;;;;;5034161;28;20428;-95
2021/12/02 15:25:21;;;;;;;67.57;11.83;;;;;;;;;;5040120;28;20444;-96
2021/12/02 15:28:15;;;;;;;65.43;12.00;;;;;;;;;;5066481;23;20515;-96
2021/12/02 15:30:45;;;;;;;67.87;11.87;;;;;;;;;;5034122;28;20484;-96
2021/12/02 15:33:12;;;;;;;67.20;11.67;;;;;;;;;;5034251;28;20468;-93
2021/12/02 15:35:40;;;;;;;66.70;11.80;;;;;;;;;;5031854;28;20445;-96
2021/12/02 15:38:14;;;;;;;65.80;11.37;;;;;;;;;;5035646;28;21381;-96
2021/12/02 15:40:41;;;;;;;67.10;12.03;;;;;;;;;;5037135;28;20458;-95
2021/12/02 15:43:09;;;;;;;65.63;12.40;;;;;;;;;;5034239;28;20452;-92
2021/12/02 15:45:36;;;;;;;67.00;12.13;;;;;;;;;;5030819;28;20527;-94
2021/12/02 15:48:05;;;;;;;64.50;11.00;;;;;;;;;;5036122;28;20445;-96
2021/12/02 15:50:33;;;;;;;66.53;11.60;;;;;;;;;;5042478;28;20438;-95
2021/12/02 15:53:01;;;;;;;66.63;11.47;;;;;;;;;;5035439;28;20492;-95
2021/12/02 15:55:30;;;;;;;66.20;11.67;;;;;;;;;;5032961;28;20445;-95
2021/12/02 15:57:58;;;;;;;65.50;12.00;;;;;;;;;;5034977;28;20468;-96
2021/12/02 16:00:45;;;;;;;66.70;12.27;;;;;;;;;;5035990;28;20864;-96
2021/12/02 16:03:19;;;;;;;66.30;11.50;;;;;;;;;;5037952;28;20454;-95